TimeEDT,TemperatureF,Dew PointF,Humidity,Sea Level PressureIn,VisibilityMPH,Wind Direction,Wind SpeedMPH,Gust SpeedMPH,PrecipitationIn,Events,Conditions,WindDirDegrees,DateUTC
12:53 AM,75.9,73.0,91,30.02,10.0,ENE,8.1,-,N/A,,Clear,60,2013-09-16 04:53:00
1:53 AM,75.9,73.0,91,30.03,10.0,East,8.1,-,N/A,,Clear,90,2013-09-16 05:53:00
2:53 AM,75.0,73.0,94,30.03,10.0,East,9.2,-,N/A,,Clear,80,2013-09-16 06:53:00
3:53 AM,73.9,72.0,93,30.01,10.0,East,5.8,-,N/A,,Clear,80,2013-09-16 07:53:00
4:53 AM,73.9,71.1,91,30.01,10.0,ENE,5.8,-,N/A,,Clear,60,2013-09-16 08:53:00
5:53 AM,73.9,72.0,93,30.01,10.0,East,8.1,-,N/A,,Clear,80,2013-09-16 09:53:00
6:53 AM,73.9,72.0,93,30.02,10.0,East,5.8,-,N/A,,Clear,80,2013-09-16 10:53:00
7:38 AM,73.4,71.6,94,30.04,10.0,NE,3.5,-,N/A,,Partly Cloudy,40,2013-09-16 11:38:00
7:53 AM,75.0,72.0,90,30.04,10.0,NE,4.6,-,N/A,,Clear,40,2013-09-16 11:53:00
8:53 AM,77.0,73.0,88,30.04,10.0,ENE,10.4,-,N/A,,Clear,60,2013-09-16 12:53:00
9:53 AM,82.0,75.0,79,30.04,10.0,ENE,11.5,-,N/A,,Clear,70,2013-09-16 13:53:00
10:53 AM,84.0,75.9,76,30.04,10.0,ENE,10.4,19.6,N/A,,Scattered Clouds,70,2013-09-16 14:53:00
11:53 AM,87.1,73.9,65,30.04,10.0,East,10.4,-,N/A,,Partly Cloudy,80,2013-09-16 15:53:00
12:53 PM,88.0,73.9,63,30.02,10.0,East,11.5,-,N/A,,Scattered Clouds,90,2013-09-16 16:53:00
1:53 PM,91.0,73.9,57,29.99,10.0,East,10.4,-,N/A,,Partly Cloudy,100,2013-09-16 17:53:00
2:53 PM,89.1,73.0,59,29.98,10.0,SE,8.1,-,N/A,,Partly Cloudy,130,2013-09-16 18:53:00
3:03 PM,89.6,73.4,59,29.98,10.0,ESE,9.2,-,N/A,Thunderstorm,Scattered Clouds,120,2013-09-16 19:03:00
3:25 PM,78.8,71.6,78,30.00,1.8,East,25.3,38.0,0.09,Rain-Thunderstorm,Heavy Thunderstorms and Rain,90,2013-09-16 19:25:00
3:34 PM,73.4,69.8,88,30.01,0.2,SE,21.9,38.0,0.75,Fog-Rain-Thunderstorm,Heavy Thunderstorms and Rain,140,2013-09-16 19:34:00
3:41 PM,73.4,71.6,94,29.99,0.5,SSE,24.2,35.7,1.02,Fog-Rain-Thunderstorm,Heavy Thunderstorms and Rain,160,2013-09-16 19:41:00
3:47 PM,73.4,71.6,94,30.00,1.0,SSE,21.9,29.9,1.10,Rain-Thunderstorm,Heavy Thunderstorms and Rain,150,2013-09-16 19:47:00
3:53 PM,73.0,72.0,96,30.00,2.0,SE,17.3,-,1.15,Rain-Thunderstorm,Thunderstorms and Rain,140,2013-09-16 19:53:00
4:00 PM,73.4,71.6,94,30.00,3.0,ESE,11.5,-,0.02,Rain-Thunderstorm,Thunderstorms and Rain,120,2013-09-16 20:00:00
4:24 PM,75.2,71.6,89,30.00,10.0,East,9.2,-,0.04,Rain-Thunderstorm,Light Rain,100,2013-09-16 20:24:00
4:45 PM,75.2,73.4,94,30.00,10.0,NE,4.6,-,0.04,,Scattered Clouds,50,2013-09-16 20:45:00
4:53 PM,75.0,73.0,94,29.99,10.0,NE,3.5,-,0.04,,Scattered Clouds,50,2013-09-16 20:53:00
5:53 PM,77.0,73.9,90,29.99,10.0,Calm,Calm,-,0.00,,Partly Cloudy,0,2013-09-16 21:53:00
6:53 PM,77.0,75.0,94,29.99,10.0,Calm,Calm,-,N/A,,Clear,0,2013-09-16 22:53:00
7:53 PM,77.0,73.0,88,29.99,10.0,ENE,5.8,-,N/A,,Partly Cloudy,60,2013-09-16 23:53:00
8:53 PM,75.9,73.9,94,29.99,10.0,ENE,4.6,-,N/A,,Clear,70,2013-09-17 00:53:00
9:53 PM,75.9,73.9,94,30.02,10.0,ENE,5.8,-,N/A,,Clear,70,2013-09-17 01:53:00
10:53 PM,75.9,73.0,91,30.01,10.0,ENE,4.6,-,N/A,,Clear,70,2013-09-17 02:53:00
11:53 PM,75.0,73.0,94,30.02,10.0,East,3.5,-,N/A,,Clear,80,2013-09-17 03:53:00